createdAt,value
2018-03-12T00:00:31.773Z,0.00
2018-03-12T00:01:31.649Z,0.00
2018-03-12T00:02:31.735Z,0.00
2018-03-12T00:03:31.617Z,0.00
2018-03-12T00:04:31.604Z,0.00
2018-03-12T00:05:31.599Z,0.00
2018-03-12T00:06:31.669Z,0.00
2018-03-12T00:07:31.545Z,0.00
2018-03-12T00:08:31.533Z,0.00
2018-03-12T00:09:31.516Z,0.00
2018-03-12T00:10:31.549Z,0.00
2018-03-12T00:11:31.481Z,0.00
2018-03-12T00:12:31.511Z,0.00
2018-03-12T00:13:31.446Z,0.00
2018-03-12T00:14:31.439Z,0.00
2018-03-12T00:15:31.416Z,0.00
2018-03-12T00:16:31.440Z,0.00
2018-03-12T00:17:31.376Z,0.00
2018-03-12T00:18:31.405Z,0.00
2018-03-12T00:19:31.341Z,0.00
2018-03-12T00:20:31.353Z,0.00
2018-03-12T00:21:31.311Z,0.00
2018-03-12T00:22:31.389Z,0.00
2018-03-12T00:23:31.273Z,0.00
2018-03-12T00:24:31.254Z,0.00
2018-03-12T00:25:31.244Z,0.00
2018-03-12T00:26:31.223Z,0.00
2018-03-12T00:27:31.208Z,0.00
2018-03-12T00:28:31.191Z,0.00
2018-03-12T00:29:31.181Z,0.00
2018-03-12T00:30:31.152Z,0.00
2018-03-12T00:31:31.135Z,0.00
2018-03-12T00:32:31.116Z,0.00
2018-03-12T00:33:31.105Z,0.00
2018-03-12T00:34:31.083Z,0.00
2018-03-12T00:35:31.071Z,0.00
2018-03-12T00:36:31.058Z,0.00
2018-03-12T00:37:31.032Z,0.00
2018-03-12T00:38:31.010Z,0.00
2018-03-12T00:39:31.003Z,0.00
2018-03-12T00:40:30.977Z,0.00
2018-03-12T00:41:30.962Z,0.00
2018-03-12T00:42:30.946Z,0.00
2018-03-12T00:43:30.929Z,0.00
2018-03-12T00:44:30.910Z,0.00
2018-03-12T00:45:30.889Z,0.00
2018-03-12T00:46:30.870Z,0.00
2018-03-12T00:47:30.860Z,0.00
2018-03-12T00:48:30.840Z,0.00
2018-03-12T00:49:30.819Z,0.00
2018-03-12T00:50:30.809Z,0.00
2018-03-12T00:51:30.791Z,0.00
2018-03-12T00:52:30.768Z,0.00
2018-03-12T00:53:30.751Z,0.00
2018-03-12T00:54:30.733Z,0.00
2018-03-12T00:55:30.720Z,0.00
2018-03-12T00:56:30.700Z,0.00
2018-03-12T00:57:30.684Z,0.00
2018-03-12T00:58:30.673Z,0.00
2018-03-12T00:59:30.652Z,0.00
2018-03-12T01:00:30.631Z,0.00
2018-03-12T01:01:30.609Z,0.00
2018-03-12T01:02:30.591Z,0.00
2018-03-12T01:03:30.590Z,0.00
2018-03-12T01:04:30.558Z,0.00
2018-03-12T01:05:30.550Z,0.00
2018-03-12T01:06:30.522Z,0.00
2018-03-12T01:07:30.508Z,0.00
2018-03-12T01:08:30.494Z,0.00
2018-03-12T01:09:30.475Z,0.00
2018-03-12T01:10:30.453Z,0.00
2018-03-12T01:11:30.435Z,0.00
2018-03-12T01:12:30.418Z,0.00
2018-03-12T01:13:30.404Z,0.00
2018-03-12T01:14:30.390Z,0.00
2018-03-12T01:15:30.368Z,0.00
2018-03-12T01:16:30.351Z,0.00
2018-03-12T01:17:30.339Z,0.00
2018-03-12T01:18:30.313Z,0.00
2018-03-12T01:19:30.298Z,0.00
2018-03-12T01:20:30.286Z,0.00
2018-03-12T01:21:30.280Z,0.00
2018-03-12T01:22:30.248Z,0.00
2018-03-12T01:23:30.230Z,0.00
2018-03-12T01:24:30.210Z,0.00
2018-03-12T01:25:30.198Z,0.00
2018-03-12T01:26:30.179Z,0.00
2018-03-12T01:27:30.159Z,0.00
2018-03-12T01:28:30.141Z,0.00
2018-03-12T01:29:30.124Z,0.00
2018-03-12T01:30:30.109Z,0.00
2018-03-12T01:31:30.089Z,0.00
2018-03-12T01:32:30.076Z,0.00
2018-03-12T01:33:30.061Z,0.00
2018-03-12T01:34:30.038Z,0.00
2018-03-12T01:35:30.026Z,0.00
2018-03-12T01:36:30.006Z,0.00
2018-03-12T01:37:29.986Z,0.00
2018-03-12T01:38:29.968Z,0.00
2018-03-12T01:39:29.954Z,0.00
2018-03-12T01:40:29.940Z,0.00
2018-03-12T01:41:29.919Z,0.00
2018-03-12T01:42:29.900Z,0.00
2018-03-12T01:43:29.887Z,0.00
2018-03-12T01:44:29.865Z,0.00
2018-03-12T01:45:29.850Z,0.00
2018-03-12T01:46:29.829Z,0.00
2018-03-12T01:47:29.817Z,0.00
2018-03-12T01:48:29.793Z,0.00
2018-03-12T01:49:29.777Z,0.00
2018-03-12T01:50:29.761Z,0.00
2018-03-12T01:51:29.745Z,0.00
2018-03-12T01:52:29.724Z,0.00
2018-03-12T01:53:29.712Z,0.00
2018-03-12T01:54:29.690Z,0.00
2018-03-12T01:55:29.672Z,0.00
2018-03-12T01:56:29.677Z,0.00
2018-03-12T01:57:29.638Z,0.00
2018-03-12T01:58:29.620Z,0.00
2018-03-12T01:59:29.605Z,0.00
2018-03-12T02:00:29.589Z,0.00
2018-03-12T02:01:29.571Z,0.00
2018-03-12T02:02:29.549Z,0.00
2018-03-12T02:03:29.533Z,0.00
2018-03-12T02:04:29.515Z,0.00
2018-03-12T02:05:29.498Z,0.00
2018-03-12T02:06:29.481Z,0.00
2018-03-12T02:07:29.463Z,0.00
2018-03-12T02:08:29.448Z,0.00
2018-03-12T02:09:29.434Z,0.00
2018-03-12T02:10:29.410Z,0.00
2018-03-12T02:11:29.392Z,0.00
2018-03-12T02:12:29.377Z,0.00
2018-03-12T02:13:29.358Z,0.00
2018-03-12T02:14:29.345Z,0.00
2018-03-12T02:15:29.329Z,0.00
2018-03-12T02:16:29.306Z,0.00
2018-03-12T02:17:29.289Z,0.00
2018-03-12T02:18:29.276Z,0.00
2018-03-12T02:19:29.251Z,0.00
2018-03-12T02:20:29.236Z,0.00
2018-03-12T02:21:29.220Z,0.00
2018-03-12T02:22:29.198Z,0.00
2018-03-12T02:23:29.179Z,0.00
2018-03-12T02:24:29.166Z,0.00
2018-03-12T02:25:29.150Z,0.00
2018-03-12T02:26:29.128Z,0.00
2018-03-12T02:27:29.117Z,0.00
2018-03-12T02:28:29.094Z,0.00
2018-03-12T02:29:29.080Z,0.00
2018-03-12T02:30:29.058Z,0.00
2018-03-12T02:31:29.050Z,0.00
2018-03-12T02:32:29.023Z,0.00
2018-03-12T02:33:29.009Z,0.00
2018-03-12T02:34:28.990Z,0.00
2018-03-12T02:35:28.977Z,0.00
2018-03-12T02:36:28.957Z,0.00
2018-03-12T02:37:28.936Z,0.00
2018-03-12T02:38:28.921Z,0.00
2018-03-12T02:39:28.902Z,0.00
2018-03-12T02:40:28.887Z,0.00
2018-03-12T02:41:28.870Z,0.00
2018-03-12T02:42:28.850Z,0.00
2018-03-12T02:43:28.842Z,0.00
2018-03-12T02:44:28.821Z,0.00
2018-03-12T02:45:28.799Z,0.00
2018-03-12T02:46:28.787Z,0.00
2018-03-12T02:47:28.763Z,0.00
2018-03-12T02:48:28.750Z,0.00
2018-03-12T02:49:28.728Z,0.00
2018-03-12T02:50:28.714Z,0.00
2018-03-12T02:51:28.700Z,0.00
2018-03-12T02:52:28.674Z,0.00
2018-03-12T02:53:28.660Z,0.00
2018-03-12T02:54:28.639Z,0.00
2018-03-12T02:55:28.628Z,0.00
2018-03-12T02:56:28.607Z,0.00
2018-03-12T02:57:28.601Z,0.00
2018-03-12T02:58:28.577Z,0.00
2018-03-12T02:59:28.550Z,0.00
2018-03-12T03:00:28.557Z,0.00
2018-03-12T03:01:28.518Z,0.00
2018-03-12T03:02:28.500Z,0.00
2018-03-12T03:03:28.492Z,0.00
2018-03-12T03:04:28.461Z,0.00
2018-03-12T03:05:28.449Z,0.00
2018-03-12T03:06:28.486Z,0.00
2018-03-12T03:07:28.428Z,0.00
2018-03-12T03:08:28.396Z,0.00
2018-03-12T03:09:28.379Z,0.00
2018-03-12T03:10:28.360Z,0.00
2018-03-12T03:11:28.340Z,0.00
2018-03-12T03:12:28.330Z,0.00
2018-03-12T03:13:28.315Z,0.00
2018-03-12T03:14:28.289Z,0.00
2018-03-12T03:15:28.275Z,0.00
2018-03-12T03:16:28.252Z,0.00
2018-03-12T03:17:28.240Z,0.00
2018-03-12T03:18:28.226Z,0.00
2018-03-12T03:19:28.200Z,0.00
2018-03-12T03:20:28.183Z,0.00
2018-03-12T03:21:28.168Z,0.00
2018-03-12T03:22:28.148Z,0.00
2018-03-12T03:23:28.128Z,0.00
2018-03-12T03:24:28.112Z,0.00
2018-03-12T03:25:28.098Z,0.00
2018-03-12T03:26:28.079Z,0.00
2018-03-12T03:27:28.058Z,0.00
2018-03-12T03:28:28.046Z,0.00
2018-03-12T03:29:28.025Z,0.00
2018-03-12T03:30:28.010Z,0.00
2018-03-12T03:31:27.994Z,0.00
2018-03-12T03:32:27.971Z,0.00
2018-03-12T03:33:28.009Z,0.00
2018-03-12T03:34:27.940Z,0.00
2018-03-12T03:35:27.918Z,0.00
2018-03-12T03:36:27.907Z,0.00
2018-03-12T03:37:27.890Z,0.00
2018-03-12T03:38:27.867Z,0.00
2018-03-12T03:39:27.847Z,0.00
2018-03-12T03:40:27.831Z,0.00
2018-03-12T03:41:27.817Z,0.00
2018-03-12T03:42:27.800Z,0.00
2018-03-12T03:43:27.779Z,0.00
2018-03-12T03:44:27.770Z,0.00
2018-03-12T03:45:27.750Z,0.00
2018-03-12T03:46:27.729Z,0.00
2018-03-12T03:47:27.712Z,0.00
2018-03-12T03:48:27.697Z,0.00
2018-03-12T03:49:27.677Z,0.00
2018-03-12T03:50:27.658Z,0.00
2018-03-12T03:51:27.638Z,0.00
2018-03-12T03:52:27.629Z,0.00
2018-03-12T03:53:27.604Z,0.00
2018-03-12T03:54:27.587Z,0.00
2018-03-12T03:55:27.576Z,0.00
2018-03-12T03:56:27.552Z,0.00
2018-03-12T03:57:27.533Z,0.00
2018-03-12T03:58:27.519Z,0.00
2018-03-12T03:59:27.498Z,0.00
2018-03-12T04:00:27.488Z,0.00
2018-03-12T04:01:27.468Z,0.00
2018-03-12T04:02:27.443Z,0.00
2018-03-12T04:03:27.429Z,0.00
2018-03-12T04:04:27.408Z,0.00
2018-03-12T04:05:27.389Z,0.00
2018-03-12T04:06:27.377Z,0.00
2018-03-12T04:07:27.352Z,0.00
2018-03-12T04:08:27.342Z,0.00
2018-03-12T04:09:27.447Z,0.00
2018-03-12T04:10:27.299Z,0.00
2018-03-12T04:11:27.290Z,0.00
2018-03-12T04:12:27.268Z,0.00
2018-03-12T04:13:27.248Z,0.00
2018-03-12T04:14:27.229Z,0.00
2018-03-12T04:15:27.218Z,0.00
2018-03-12T04:16:27.198Z,0.00
2018-03-12T04:17:27.176Z,0.00
2018-03-12T04:18:27.157Z,0.00
2018-03-12T04:19:27.147Z,0.00
2018-03-12T04:20:27.129Z,0.00
2018-03-12T04:21:27.233Z,0.00
2018-03-12T04:22:27.089Z,0.00
2018-03-12T04:23:27.106Z,0.00
2018-03-12T04:24:27.050Z,0.00
2018-03-12T04:25:27.041Z,0.00
2018-03-12T04:26:27.017Z,0.00
2018-03-12T04:27:27.002Z,0.00
2018-03-12T04:28:26.984Z,0.00
2018-03-12T04:29:27.060Z,0.00
2018-03-12T04:30:26.944Z,0.00
2018-03-12T04:31:26.928Z,0.00
2018-03-12T04:32:26.908Z,0.00
2018-03-12T04:33:26.895Z,0.00
2018-03-12T04:34:26.874Z,0.00
2018-03-12T04:35:26.943Z,0.00
2018-03-12T04:36:26.839Z,0.00
2018-03-12T04:37:26.817Z,0.00
2018-03-12T04:38:26.799Z,0.00
2018-03-12T04:39:26.793Z,0.00
2018-03-12T04:40:26.773Z,0.00
2018-03-12T04:41:26.747Z,0.00
2018-03-12T04:42:26.728Z,0.00
2018-03-12T04:43:26.718Z,0.00
2018-03-12T04:44:26.697Z,0.00
2018-03-12T04:45:26.689Z,0.00
2018-03-12T04:46:26.657Z,0.00
2018-03-12T04:47:26.638Z,0.00
2018-03-12T04:48:26.624Z,0.00
2018-03-12T04:49:26.604Z,0.00
2018-03-12T04:50:26.590Z,0.00
2018-03-12T04:51:26.568Z,0.00
2018-03-12T04:52:26.560Z,0.00
2018-03-12T04:53:26.535Z,0.00
2018-03-12T04:54:26.518Z,0.00
2018-03-12T04:55:26.498Z,0.00
2018-03-12T04:56:26.478Z,0.00
2018-03-12T04:57:26.469Z,0.00
2018-03-12T04:58:26.449Z,0.00
2018-03-12T04:59:26.436Z,0.00
2018-03-12T05:00:26.408Z,0.00
2018-03-12T05:01:26.398Z,0.00
2018-03-12T05:02:26.381Z,0.00
2018-03-12T05:03:26.352Z,0.00
2018-03-12T05:04:26.339Z,0.00
2018-03-12T05:05:26.318Z,0.00
2018-03-12T05:06:26.298Z,0.00
2018-03-12T05:07:26.281Z,0.00
2018-03-12T05:08:26.269Z,0.00
2018-03-12T05:09:26.249Z,0.00
2018-03-12T05:10:26.229Z,0.00
2018-03-12T05:11:26.212Z,0.00
2018-03-12T05:12:26.206Z,0.00
2018-03-12T05:13:26.178Z,0.00
2018-03-12T05:14:26.157Z,0.00
2018-03-12T05:15:26.137Z,0.00
2018-03-12T05:16:26.118Z,0.00
2018-03-12T05:17:26.100Z,0.00
2018-03-12T05:18:26.087Z,0.00
2018-03-12T05:19:26.095Z,0.00
2018-03-12T05:20:26.049Z,0.00
2018-03-12T05:21:26.128Z,0.00
2018-03-12T05:22:26.010Z,0.00
2018-03-12T05:23:26.098Z,0.00
2018-03-12T05:24:25.981Z,0.00
2018-03-12T05:25:26.036Z,0.00
2018-03-12T05:26:25.937Z,0.00
2018-03-12T05:27:26.069Z,0.00
2018-03-12T05:28:25.909Z,0.00
2018-03-12T05:29:25.920Z,0.00
2018-03-12T05:30:25.867Z,4.00
2018-03-12T05:31:25.949Z,4.00
2018-03-12T05:32:25.833Z,0.00
2018-03-12T05:33:25.847Z,0.00
2018-03-12T05:34:25.797Z,4.00
2018-03-12T05:35:25.783Z,4.00
2018-03-12T05:36:25.757Z,4.00
2018-03-12T05:37:25.742Z,4.00
2018-03-12T05:38:25.723Z,8.00
2018-03-12T05:39:25.809Z,4.00
2018-03-12T05:40:25.690Z,8.00
2018-03-12T05:41:25.717Z,8.00
2018-03-12T05:42:25.705Z,8.00
2018-03-12T05:43:25.792Z,8.00
2018-03-12T05:44:25.617Z,12.00
2018-03-12T05:45:25.628Z,12.00
2018-03-12T05:46:25.575Z,16.00
2018-03-12T05:47:25.568Z,12.00
2018-03-12T05:48:25.541Z,16.00
2018-03-12T05:49:25.627Z,16.00
2018-03-12T05:50:25.521Z,16.00
2018-03-12T05:51:25.550Z,20.00
2018-03-12T05:52:25.468Z,20.00
2018-03-12T05:53:25.553Z,24.00
2018-03-12T05:54:25.432Z,28.00
2018-03-12T05:55:25.514Z,32.00
2018-03-12T05:56:25.396Z,36.00
2018-03-12T05:57:25.428Z,36.00
2018-03-12T05:58:25.367Z,40.00
2018-03-12T05:59:25.346Z,44.00
2018-03-12T06:00:25.325Z,44.00
2018-03-12T06:01:25.310Z,52.00
2018-03-12T06:02:25.291Z,52.00
2018-03-12T06:03:25.268Z,56.00
2018-03-12T06:04:25.262Z,64.00
2018-03-12T06:05:25.236Z,68.00
2018-03-12T06:06:25.216Z,72.00
2018-03-12T06:07:25.200Z,76.00
2018-03-12T06:08:25.181Z,84.00
2018-03-12T06:09:25.165Z,84.00
2018-03-12T06:10:25.142Z,92.00
2018-03-12T06:11:25.124Z,96.00
2018-03-12T06:12:25.104Z,100.00
2018-03-12T06:13:25.090Z,104.00
2018-03-12T06:14:25.069Z,108.00
2018-03-12T06:15:25.051Z,116.00
2018-03-12T06:16:25.034Z,120.00
2018-03-12T06:17:25.023Z,128.00
2018-03-12T06:18:24.999Z,132.00
2018-03-12T06:19:24.981Z,136.00
2018-03-12T06:20:24.961Z,144.00
2018-03-12T06:21:24.943Z,152.00
2018-03-12T06:22:24.928Z,156.00
2018-03-12T06:23:24.913Z,164.00
2018-03-12T06:24:24.888Z,168.00
2018-03-12T06:25:24.869Z,176.00
2018-03-12T06:26:24.856Z,184.00
2018-03-12T06:27:24.833Z,192.00
2018-03-12T06:28:24.821Z,200.00
2018-03-12T06:29:24.805Z,212.00
2018-03-12T06:30:24.778Z,220.00
2018-03-12T06:31:24.769Z,232.00
2018-03-12T06:32:24.742Z,240.00
2018-03-12T06:33:24.722Z,252.00
2018-03-12T06:34:24.709Z,268.00
2018-03-12T06:35:24.690Z,280.00
2018-03-12T06:36:24.669Z,292.00
2018-03-12T06:37:24.652Z,308.00
2018-03-12T06:38:24.636Z,320.00
2018-03-12T06:39:24.623Z,332.00
2018-03-12T06:40:24.596Z,344.00
2018-03-12T06:41:24.578Z,360.00
2018-03-12T06:42:24.561Z,372.00
2018-03-12T06:43:24.547Z,384.00
2018-03-12T06:44:24.526Z,396.00
2018-03-12T06:45:24.511Z,412.00
2018-03-12T06:46:24.488Z,424.00
2018-03-12T06:47:24.522Z,440.00
2018-03-12T06:48:24.455Z,456.00
2018-03-12T06:49:24.487Z,476.00
2018-03-12T06:50:24.421Z,496.00
2018-03-12T06:51:24.399Z,516.00
2018-03-12T06:52:24.384Z,528.00
2018-03-12T06:53:24.419Z,552.00
2018-03-12T06:54:24.345Z,564.00
2018-03-12T06:55:24.330Z,580.00
2018-03-12T06:56:24.314Z,600.00
2018-03-12T06:57:24.306Z,616.00
2018-03-12T06:58:24.292Z,636.00
2018-03-12T06:59:24.311Z,660.00
2018-03-12T07:00:24.240Z,684.00
2018-03-12T07:01:24.228Z,712.00
2018-03-12T07:02:24.213Z,740.00
2018-03-12T07:03:24.239Z,776.00
2018-03-12T07:04:24.171Z,808.00
2018-03-12T07:05:24.152Z,840.00
2018-03-12T07:06:24.140Z,876.00
2018-03-12T07:07:24.169Z,912.00
2018-03-12T07:08:24.097Z,944.00
2018-03-12T07:09:24.141Z,976.00
2018-03-12T07:10:24.061Z,1008.00
2018-03-12T07:11:24.042Z,1040.00
2018-03-12T07:12:24.029Z,1068.00
2018-03-12T07:13:24.010Z,1092.00
2018-03-12T07:14:23.991Z,1120.00
2018-03-12T07:15:23.988Z,1152.00
2018-03-12T07:16:23.953Z,1180.00
2018-03-12T07:17:23.989Z,1208.00
2018-03-12T07:18:23.920Z,1232.00
2018-03-12T07:19:23.905Z,1256.00
2018-03-12T07:20:23.885Z,1280.00
2018-03-12T07:21:23.866Z,1300.00
2018-03-12T07:22:23.852Z,1312.00
2018-03-12T07:23:23.834Z,1320.00
2018-03-12T07:24:23.814Z,1328.00
2018-03-12T07:25:23.802Z,1332.00
2018-03-12T07:26:23.788Z,1340.00
2018-03-12T07:27:23.757Z,1352.00
2018-03-12T07:28:23.740Z,1364.00
2018-03-12T07:29:23.771Z,1376.00
2018-03-12T07:30:23.720Z,1392.00
2018-03-12T07:31:23.689Z,1400.00
2018-03-12T07:32:23.681Z,1416.00
2018-03-12T07:33:23.655Z,1428.00
2018-03-12T07:34:23.638Z,1444.00
2018-03-12T07:35:23.619Z,1452.00
2018-03-12T07:36:23.603Z,1456.00
2018-03-12T07:37:23.591Z,1456.00
2018-03-12T07:38:23.570Z,1452.00
2018-03-12T07:39:23.562Z,1444.00
2018-03-12T07:40:23.541Z,1432.00
2018-03-12T07:41:23.521Z,1420.00
2018-03-12T07:42:23.501Z,1408.00
2018-03-12T07:43:23.481Z,1400.00
2018-03-12T07:44:23.474Z,1396.00
2018-03-12T07:45:23.450Z,1400.00
2018-03-12T07:46:23.432Z,1404.00
2018-03-12T07:47:23.414Z,1412.00
2018-03-12T07:48:23.396Z,1416.00
2018-03-12T07:49:23.376Z,1420.00
2018-03-12T07:50:23.357Z,1428.00
2018-03-12T07:51:23.350Z,1436.00
2018-03-12T07:52:23.327Z,1444.00
2018-03-12T07:53:23.306Z,1444.00
2018-03-12T07:54:23.291Z,1452.00
2018-03-12T07:55:23.279Z,1452.00
2018-03-12T07:56:23.257Z,1452.00
2018-03-12T07:57:23.237Z,1452.00
2018-03-12T07:58:23.226Z,1452.00
2018-03-12T07:59:23.205Z,1460.00
2018-03-12T08:00:23.189Z,1468.00
2018-03-12T08:01:23.175Z,1484.00
2018-03-12T08:02:23.159Z,1500.00
2018-03-12T08:03:23.142Z,1504.00
2018-03-12T08:04:23.120Z,1500.00
2018-03-12T08:05:23.107Z,1492.00
2018-03-12T08:06:23.088Z,1484.00
2018-03-12T08:07:23.068Z,1496.00
2018-03-12T08:08:23.048Z,1508.00
2018-03-12T08:09:23.039Z,1520.00
2018-03-12T08:10:23.016Z,1536.00
2018-03-12T08:11:22.999Z,1548.00
2018-03-12T08:12:22.980Z,1560.00
2018-03-12T08:13:22.960Z,1572.00
2018-03-12T08:14:22.945Z,1584.00
2018-03-12T08:15:22.929Z,1592.00
2018-03-12T08:16:22.913Z,1596.00
2018-03-12T08:17:22.900Z,1600.00
2018-03-12T08:18:22.894Z,1604.00
2018-03-12T08:19:22.860Z,1600.00
2018-03-12T08:20:22.839Z,1596.00
2018-03-12T08:21:22.829Z,1592.00
2018-03-12T08:22:22.809Z,1600.00
2018-03-12T08:23:22.790Z,1612.00
2018-03-12T08:24:22.773Z,1632.00
2018-03-12T08:25:22.754Z,1644.00
2018-03-12T08:26:22.740Z,1672.00
2018-03-12T08:27:22.717Z,1684.00
2018-03-12T08:28:22.703Z,1692.00
2018-03-12T08:29:22.689Z,1704.00
2018-03-12T08:30:22.670Z,1708.00
2018-03-12T08:31:22.651Z,1708.00
2018-03-12T08:32:22.638Z,1708.00
2018-03-12T08:33:22.633Z,1712.00
2018-03-12T08:34:22.600Z,1712.00
2018-03-12T08:35:22.580Z,1708.00
2018-03-12T08:36:22.566Z,1704.00
2018-03-12T08:37:22.549Z,1696.00
2018-03-12T08:38:22.540Z,1680.00
2018-03-12T08:39:22.521Z,1684.00
2018-03-12T08:40:22.499Z,1676.00
2018-03-12T08:41:22.481Z,1672.00
2018-03-12T08:42:22.460Z,1668.00
2018-03-12T08:43:22.448Z,1672.00
2018-03-12T08:44:22.439Z,1672.00
2018-03-12T08:45:22.410Z,1676.00
2018-03-12T08:46:22.391Z,1680.00
2018-03-12T08:47:22.379Z,1680.00
2018-03-12T08:48:22.359Z,1684.00
2018-03-12T08:49:22.353Z,1688.00
2018-03-12T08:50:22.325Z,1688.00
2018-03-12T08:51:22.359Z,1700.00
2018-03-12T08:52:22.292Z,1712.00
2018-03-12T08:53:22.280Z,1724.00
2018-03-12T08:54:22.260Z,1736.00
2018-03-12T08:55:22.241Z,1748.00
2018-03-12T08:56:22.229Z,1756.00
2018-03-12T08:57:22.209Z,1768.00
2018-03-12T08:58:22.193Z,1772.00
2018-03-12T08:59:22.173Z,1776.00
2018-03-12T09:00:22.163Z,1776.00
2018-03-12T09:01:22.141Z,1784.00
2018-03-12T09:02:22.121Z,1788.00
2018-03-12T09:03:22.103Z,1800.00
2018-03-12T09:04:22.095Z,1812.00
2018-03-12T09:05:22.072Z,1816.00
2018-03-12T09:06:22.060Z,1828.00
2018-03-12T09:07:22.041Z,1836.00
2018-03-12T09:08:22.021Z,1848.00
2018-03-12T09:09:22.010Z,1856.00
2018-03-12T09:10:21.990Z,1876.00
2018-03-12T09:11:21.981Z,1888.00
2018-03-12T09:12:21.960Z,1908.00
2018-03-12T09:13:21.936Z,1928.00
2018-03-12T09:14:21.920Z,1948.00
2018-03-12T09:15:21.910Z,1960.00
2018-03-12T09:16:21.890Z,1976.00
2018-03-12T09:17:21.878Z,1996.00
2018-03-12T09:18:21.855Z,2024.00
2018-03-12T09:19:21.840Z,2052.00
2018-03-12T09:20:21.819Z,2076.00
2018-03-12T09:21:21.809Z,2104.00
2018-03-12T09:22:21.791Z,2136.00
2018-03-12T09:23:21.772Z,2156.00
2018-03-12T09:24:21.754Z,2184.00
2018-03-12T09:25:21.740Z,2220.00
2018-03-12T09:26:21.724Z,2252.00
2018-03-12T09:27:21.707Z,2280.00
2018-03-12T09:28:21.693Z,2312.00
2018-03-12T09:29:21.674Z,2352.00
2018-03-12T09:30:21.670Z,2384.00
2018-03-12T09:31:21.639Z,2416.00
2018-03-12T09:32:21.629Z,2448.00
2018-03-12T09:33:21.610Z,2468.00
2018-03-12T09:34:21.592Z,2488.00
2018-03-12T09:35:21.572Z,2496.00
2018-03-12T09:36:21.568Z,2492.00
2018-03-12T09:37:21.546Z,2476.00
2018-03-12T09:38:21.530Z,2456.00
2018-03-12T09:39:21.509Z,2432.00
2018-03-12T09:40:21.505Z,2412.00
2018-03-12T09:41:21.479Z,2384.00
2018-03-12T09:42:21.463Z,2344.00
2018-03-12T09:43:21.441Z,2296.00
2018-03-12T09:44:21.438Z,2244.00
2018-03-12T09:45:21.414Z,2188.00
2018-03-12T09:46:21.399Z,2140.00
2018-03-12T09:47:21.379Z,2088.00
2018-03-12T09:48:21.361Z,2052.00
2018-03-12T09:49:21.346Z,2024.00
2018-03-12T09:50:21.394Z,2012.00
2018-03-12T09:51:21.312Z,2024.00
2018-03-12T09:52:21.339Z,2056.00
2018-03-12T09:53:21.279Z,2096.00
2018-03-12T09:54:21.387Z,2132.00
2018-03-12T09:55:21.250Z,2156.00
2018-03-12T09:56:21.355Z,2160.00
2018-03-12T09:57:21.220Z,2156.00
2018-03-12T09:58:21.209Z,2164.00
2018-03-12T09:59:21.193Z,2168.00
2018-03-12T10:00:21.261Z,2152.00
2018-03-12T10:01:21.155Z,2124.00
2018-03-12T10:02:21.141Z,2108.00
2018-03-12T10:03:21.122Z,2100.00
2018-03-12T10:04:21.308Z,2096.00
2018-03-12T10:05:21.095Z,2096.00
2018-03-12T10:06:21.087Z,2100.00
2018-03-12T10:07:21.061Z,2116.00
2018-03-12T10:08:21.042Z,2136.00
2018-03-12T10:09:21.031Z,2188.00
2018-03-12T10:10:21.068Z,2244.00
2018-03-12T10:11:20.993Z,2268.00
2018-03-12T10:12:20.983Z,2216.00
2018-03-12T10:13:20.959Z,2104.00
2018-03-12T10:14:20.943Z,1988.00
2018-03-12T10:15:20.930Z,1884.00
2018-03-12T10:16:20.922Z,1768.00
2018-03-12T10:17:20.899Z,1668.00
2018-03-12T10:18:20.877Z,1592.00
2018-03-12T10:19:20.861Z,1528.00
2018-03-12T10:20:20.862Z,1464.00
2018-03-12T10:21:20.830Z,1412.00
2018-03-12T10:22:20.818Z,1372.00
2018-03-12T10:23:20.814Z,1364.00
2018-03-12T10:24:20.786Z,1384.00
2018-03-12T10:25:20.768Z,1436.00
2018-03-12T10:26:20.760Z,1500.00
2018-03-12T10:27:20.736Z,1564.00
2018-03-12T10:28:20.720Z,1648.00
2018-03-12T10:29:20.707Z,1768.00
2018-03-12T10:30:20.692Z,1892.00
2018-03-12T10:31:20.673Z,2016.00
2018-03-12T10:32:20.659Z,2164.00
2018-03-12T10:33:20.704Z,2304.00
2018-03-12T10:34:20.626Z,2412.00
2018-03-12T10:35:20.607Z,2476.00
2018-03-12T10:36:20.598Z,2512.00
2018-03-12T10:37:20.581Z,2568.00
2018-03-12T10:38:20.560Z,2596.00
2018-03-12T10:39:20.547Z,2620.00
2018-03-12T10:40:20.536Z,2668.00
2018-03-12T10:41:20.522Z,2764.00
2018-03-12T10:42:20.505Z,2888.00
2018-03-12T10:43:20.491Z,2984.00
2018-03-12T10:44:20.478Z,3040.00
2018-03-12T10:45:20.453Z,3072.00
2018-03-12T10:46:20.435Z,3052.00
2018-03-12T10:47:20.421Z,2996.00
2018-03-12T10:48:20.411Z,2892.00
2018-03-12T10:49:20.389Z,2836.00
2018-03-12T10:50:20.380Z,2844.00
2018-03-12T10:51:20.359Z,2912.00
2018-03-12T10:52:20.341Z,3036.00
2018-03-12T10:53:20.333Z,3156.00
2018-03-12T10:54:20.310Z,3264.00
2018-03-12T10:55:20.301Z,3320.00
2018-03-12T10:56:20.285Z,3224.00
2018-03-12T10:57:20.271Z,3208.00
2018-03-12T10:58:20.251Z,3196.00
2018-03-12T10:59:20.230Z,3156.00
2018-03-12T11:00:20.219Z,3052.00
2018-03-12T11:01:20.201Z,2932.00
2018-03-12T11:02:20.190Z,2820.00
2018-03-12T11:03:20.165Z,2756.00
2018-03-12T11:04:20.154Z,2760.00
2018-03-12T11:05:20.144Z,2844.00
2018-03-12T11:06:20.120Z,3004.00
2018-03-12T11:07:20.105Z,3236.00
2018-03-12T11:08:20.089Z,3472.00
2018-03-12T11:09:20.072Z,3716.00
2018-03-12T11:10:20.060Z,3864.00
2018-03-12T11:11:20.041Z,3836.00
2018-03-12T11:12:20.031Z,3760.00
2018-03-12T11:13:20.012Z,3756.00
2018-03-12T11:14:20.001Z,3644.00
2018-03-12T11:15:19.978Z,3488.00
2018-03-12T11:16:19.971Z,3372.00
2018-03-12T11:17:19.950Z,3288.00
2018-03-12T11:18:20.189Z,3260.00
2018-03-12T11:19:19.921Z,3224.00
2018-03-12T11:20:19.905Z,3224.00
2018-03-12T11:21:19.888Z,3244.00
2018-03-12T11:22:19.877Z,3332.00
2018-03-12T11:23:19.857Z,3500.00
2018-03-12T11:24:19.844Z,3700.00
2018-03-12T11:25:19.826Z,3924.00
2018-03-12T11:26:19.813Z,4232.00
2018-03-12T11:27:19.800Z,4616.00
2018-03-12T11:28:19.783Z,5016.00
2018-03-12T11:29:19.769Z,5456.00
2018-03-12T11:30:19.758Z,5556.00
2018-03-12T11:31:19.739Z,5784.00
2018-03-12T11:32:19.728Z,6160.00
2018-03-12T11:33:19.710Z,6480.00
2018-03-12T11:34:19.695Z,6576.00
2018-03-12T11:35:19.681Z,6772.00
2018-03-12T11:36:19.665Z,7392.00
2018-03-12T11:37:19.650Z,7736.00
2018-03-12T11:38:19.642Z,7652.00
2018-03-12T11:39:19.620Z,8452.00
2018-03-12T11:40:19.607Z,8448.00
2018-03-12T11:41:19.594Z,9148.00
2018-03-12T11:42:19.590Z,9884.00
2018-03-12T11:43:19.573Z,9380.00
2018-03-12T11:44:19.550Z,10852.00
2018-03-12T11:45:19.539Z,11604.00
2018-03-12T11:46:19.526Z,11580.00
2018-03-12T11:47:19.516Z,11976.00
2018-03-12T11:48:19.499Z,11572.00
2018-03-12T11:49:19.484Z,11392.00
2018-03-12T11:50:19.472Z,11672.00
2018-03-12T11:51:19.460Z,11620.00
2018-03-12T11:52:19.446Z,11756.00
2018-03-12T11:53:19.434Z,11608.00
2018-03-12T11:54:19.419Z,11784.00
2018-03-12T11:55:19.409Z,11956.00
2018-03-12T11:56:19.399Z,11724.00
2018-03-12T11:57:19.385Z,11684.00
2018-03-12T11:58:19.371Z,11436.00
2018-03-12T11:59:19.362Z,10704.00
2018-03-12T12:00:19.353Z,10736.00
2018-03-12T12:01:19.336Z,10912.00
2018-03-12T12:02:19.328Z,11348.00
2018-03-12T12:03:19.321Z,11728.00
2018-03-12T12:04:19.301Z,11856.00
2018-03-12T12:05:19.292Z,11188.00
2018-03-12T12:06:19.281Z,11356.00
2018-03-12T12:07:19.272Z,11576.00
2018-03-12T12:08:19.262Z,11516.00
2018-03-12T12:09:19.255Z,10944.00
2018-03-12T12:10:19.233Z,10556.00
2018-03-12T12:11:19.229Z,10572.00
2018-03-12T12:12:19.213Z,9912.00
2018-03-12T12:13:19.205Z,9896.00
2018-03-12T12:14:19.189Z,9480.00
2018-03-12T12:15:19.188Z,9172.00
2018-03-12T12:16:19.173Z,9396.00
2018-03-12T12:17:19.164Z,9164.00
2018-03-12T12:18:19.156Z,8688.00
2018-03-12T12:19:19.138Z,8032.00
2018-03-12T12:20:19.123Z,7692.00
2018-03-12T12:21:19.110Z,8744.00
2018-03-12T12:22:19.113Z,9328.00
2018-03-12T12:23:19.086Z,9740.00
2018-03-12T12:24:19.089Z,9252.00
2018-03-12T12:25:19.064Z,9144.00
2018-03-12T12:26:19.066Z,8236.00
2018-03-12T12:27:19.053Z,7208.00
2018-03-12T12:28:19.036Z,6704.00
2018-03-12T12:29:19.029Z,6796.00
2018-03-12T12:30:19.011Z,7676.00
2018-03-12T12:31:19.004Z,9008.00
2018-03-12T12:32:18.982Z,9304.00
2018-03-12T12:33:18.980Z,9200.00
2018-03-12T12:34:18.959Z,9296.00
2018-03-12T12:35:18.951Z,9824.00
2018-03-12T12:36:18.940Z,9664.00
2018-03-12T12:37:18.930Z,9632.00
2018-03-12T12:38:18.914Z,9976.00
2018-03-12T12:39:18.900Z,10280.00